Terminal Aerodrome Forecast
Issued by NWS

Home | Current Version | Previous Version | Text Only | Print | Product List | Glossary Off
Versions: 1 2 3 4 5 6 7 8 9 10 11 12 13 14 15 16 17 18

000
FTUS43 KMPX 271207 AAA
TAFRNH
TAF AMD
KRNH 271207Z 2712/2812 21004KT 4SM BR SKC
     FM271400 24008KT P6SM FEW060
     FM271600 27010G16KT P6SM SCT060
     FM272100 27010G16KT P6SM VCSH BKN080
     FM280100 VRB02KT P6SM SKC=

USA.gov is the U.S. government's official web portal to all federal, state and local government web resources and services.